sensor_id;sensor_type;location;lat;lon;timestamp;temperature;humidity
48589;DHT22;34369;51.174;6.738;2023-04-08T00:00:53;8.80;68.60
48589;DHT22;34369;51.174;6.738;2023-04-08T00:03:25;8.80;68.70
48589;DHT22;34369;51.174;6.738;2023-04-08T00:05:57;8.80;68.70
48589;DHT22;34369;51.174;6.738;2023-04-08T00:08:30;8.80;68.80
48589;DHT22;34369;51.174;6.738;2023-04-08T00:11:05;8.80;68.90
48589;DHT22;34369;51.174;6.738;2023-04-08T00:13:37;8.70;68.90
48589;DHT22;34369;51.174;6.738;2023-04-08T00:16:09;8.70;69.00
48589;DHT22;34369;51.174;6.738;2023-04-08T00:18:47;8.70;69.00
48589;DHT22;34369;51.174;6.738;2023-04-08T00:21:24;8.70;69.10
48589;DHT22;34369;51.174;6.738;2023-04-08T00:24:01;8.70;69.50
48589;DHT22;34369;51.174;6.738;2023-04-08T00:26:34;8.70;68.90
48589;DHT22;34369;51.174;6.738;2023-04-08T00:29:07;8.70;69.10
48589;DHT22;34369;51.174;6.738;2023-04-08T00:31:40;8.70;69.10
48589;DHT22;34369;51.174;6.738;2023-04-08T00:34:12;8.70;69.20
48589;DHT22;34369;51.174;6.738;2023-04-08T00:36:46;8.70;69.30
48589;DHT22;34369;51.174;6.738;2023-04-08T00:39:18;8.60;69.30
48589;DHT22;34369;51.174;6.738;2023-04-08T00:41:52;8.70;69.40
48589;DHT22;34369;51.174;6.738;2023-04-08T00:44:31;8.70;69.50
48589;DHT22;34369;51.174;6.738;2023-04-08T00:47:03;8.70;69.50
48589;DHT22;34369;51.174;6.738;2023-04-08T00:49:41;8.70;69.60
48589;DHT22;34369;51.174;6.738;2023-04-08T00:52:13;8.70;69.60
48589;DHT22;34369;51.174;6.738;2023-04-08T00:54:48;8.70;69.60
48589;DHT22;34369;51.174;6.738;2023-04-08T00:57:21;8.70;69.70
48589;DHT22;34369;51.174;6.738;2023-04-08T00:59:55;8.60;69.70
48589;DHT22;34369;51.174;6.738;2023-04-08T01:02:32;8.70;69.70
48589;DHT22;34369;51.174;6.738;2023-04-08T01:05:12;8.70;69.80
48589;DHT22;34369;51.174;6.738;2023-04-08T01:07:47;8.70;69.80
48589;DHT22;34369;51.174;6.738;2023-04-08T01:10:22;8.70;69.70
48589;DHT22;34369;51.174;6.738;2023-04-08T01:13:03;8.70;69.70
48589;DHT22;34369;51.174;6.738;2023-04-08T01:15:38;8.70;69.90
48589;DHT22;34369;51.174;6.738;2023-04-08T01:18:13;8.70;69.70
48589;DHT22;34369;51.174;6.738;2023-04-08T01:20:46;8.70;69.80
48589;DHT22;34369;51.174;6.738;2023-04-08T01:23:27;8.70;69.80
48589;DHT22;34369;51.174;6.738;2023-04-08T01:26:05;8.70;69.90
48589;DHT22;34369;51.174;6.738;2023-04-08T01:28:38;8.70;69.80
48589;DHT22;34369;51.174;6.738;2023-04-08T01:31:13;8.60;69.80
48589;DHT22;34369;51.174;6.738;2023-04-08T01:33:47;8.60;69.80
48589;DHT22;34369;51.174;6.738;2023-04-08T01:36:20;8.60;69.90
48589;DHT22;34369;51.174;6.738;2023-04-08T01:38:54;8.60;69.90
48589;DHT22;34369;51.174;6.738;2023-04-08T01:41:29;8.60;69.90
48589;DHT22;34369;51.174;6.738;2023-04-08T01:44:03;8.60;70.00
48589;DHT22;34369;51.174;6.738;2023-04-08T01:46:37;8.60;70.00
48589;DHT22;34369;51.174;6.738;2023-04-08T01:49:10;8.60;70.10
48589;DHT22;34369;51.174;6.738;2023-04-08T01:51:43;8.60;70.10
48589;DHT22;34369;51.174;6.738;2023-04-08T01:54:17;8.60;70.20
48589;DHT22;34369;51.174;6.738;2023-04-08T01:56:51;8.60;70.20
48589;DHT22;34369;51.174;6.738;2023-04-08T01:59:30;8.60;70.20
48589;DHT22;34369;51.174;6.738;2023-04-08T02:02:08;8.60;70.30
48589;DHT22;34369;51.174;6.738;2023-04-08T02:04:40;8.60;70.20
48589;DHT22;34369;51.174;6.738;2023-04-08T02:07:13;8.60;70.30
48589;DHT22;34369;51.174;6.738;2023-04-08T02:09:45;8.60;70.20
48589;DHT22;34369;51.174;6.738;2023-04-08T02:12:22;8.60;70.30
48589;DHT22;34369;51.174;6.738;2023-04-08T02:14:54;8.60;70.50
48589;DHT22;34369;51.174;6.738;2023-04-08T02:17:34;8.60;70.40
48589;DHT22;34369;51.174;6.738;2023-04-08T02:20:10;8.60;70.50
48589;DHT22;34369;51.174;6.738;2023-04-08T02:22:52;8.60;70.40
48589;DHT22;34369;51.174;6.738;2023-04-08T02:25:29;8.60;70.40
48589;DHT22;34369;51.174;6.738;2023-04-08T02:28:05;8.60;70.40
48589;DHT22;34369;51.174;6.738;2023-04-08T02:30:42;8.60;70.40
48589;DHT22;34369;51.174;6.738;2023-04-08T02:33:20;8.60;70.40
48589;DHT22;34369;51.174;6.738;2023-04-08T02:35:53;8.60;70.40
48589;DHT22;34369;51.174;6.738;2023-04-08T02:38:27;8.60;70.40
48589;DHT22;34369;51.174;6.738;2023-04-08T02:41:00;8.60;70.50
48589;DHT22;34369;51.174;6.738;2023-04-08T02:43:33;8.60;70.40
48589;DHT22;34369;51.174;6.738;2023-04-08T02:46:06;8.70;70.50
48589;DHT22;34369;51.174;6.738;2023-04-08T02:48:39;8.60;70.40
48589;DHT22;34369;51.174;6.738;2023-04-08T02:51:11;8.60;70.50
48589;DHT22;34369;51.174;6.738;2023-04-08T02:53:43;8.70;70.50
48589;DHT22;34369;51.174;6.738;2023-04-08T02:56:15;8.70;70.50
48589;DHT22;34369;51.174;6.738;2023-04-08T02:58:49;8.70;70.50
48589;DHT22;34369;51.174;6.738;2023-04-08T03:01:21;8.70;70.60
48589;DHT22;34369;51.174;6.738;2023-04-08T03:03:54;8.80;70.50
48589;DHT22;34369;51.174;6.738;2023-04-08T03:06:26;8.70;70.60
48589;DHT22;34369;51.174;6.738;2023-04-08T03:08:58;8.80;70.50
48589;DHT22;34369;51.174;6.738;2023-04-08T03:11:30;8.70;70.50
48589;DHT22;34369;51.174;6.738;2023-04-08T03:14:03;8.80;70.50
48589;DHT22;34369;51.174;6.738;2023-04-08T03:16:36;8.80;70.50
48589;DHT22;34369;51.174;6.738;2023-04-08T03:19:08;8.80;70.50
48589;DHT22;34369;51.174;6.738;2023-04-08T03:21:40;8.80;70.40
48589;DHT22;34369;51.174;6.738;2023-04-08T03:24:12;8.80;70.50
48589;DHT22;34369;51.174;6.738;2023-04-08T03:26:44;8.80;70.40
48589;DHT22;34369;51.174;6.738;2023-04-08T03:29:18;8.80;70.40
48589;DHT22;34369;51.174;6.738;2023-04-08T03:31:49;8.80;70.40
48589;DHT22;34369;51.174;6.738;2023-04-08T03:34:21;8.80;70.40
48589;DHT22;34369;51.174;6.738;2023-04-08T03:36:55;8.80;70.40
48589;DHT22;34369;51.174;6.738;2023-04-08T03:39:27;8.80;70.40
48589;DHT22;34369;51.174;6.738;2023-04-08T03:42:00;8.80;70.40
48589;DHT22;34369;51.174;6.738;2023-04-08T03:44:35;8.80;70.40
48589;DHT22;34369;51.174;6.738;2023-04-08T03:47:08;8.80;70.40
48589;DHT22;34369;51.174;6.738;2023-04-08T03:49:41;8.80;70.40
48589;DHT22;34369;51.174;6.738;2023-04-08T03:52:13;8.80;70.40
48589;DHT22;34369;51.174;6.738;2023-04-08T03:54:45;8.80;70.40
48589;DHT22;34369;51.174;6.738;2023-04-08T03:57:18;8.80;70.40
48589;DHT22;34369;51.174;6.738;2023-04-08T03:59:51;8.80;70.50
48589;DHT22;34369;51.174;6.738;2023-04-08T04:02:24;8.80;70.50
48589;DHT22;34369;51.174;6.738;2023-04-08T04:04:56;8.80;70.40
48589;DHT22;34369;51.174;6.738;2023-04-08T04:07:30;8.80;70.40
48589;DHT22;34369;51.174;6.738;2023-04-08T04:10:02;8.80;70.30
48589;DHT22;34369;51.174;6.738;2023-04-08T04:12:35;8.80;70.20
48589;DHT22;34369;51.174;6.738;2023-04-08T04:15:11;8.80;70.10
48589;DHT22;34369;51.174;6.738;2023-04-08T04:17:43;8.80;70.10
48589;DHT22;34369;51.174;6.738;2023-04-08T04:20:15;8.80;70.00
48589;DHT22;34369;51.174;6.738;2023-04-08T04:22:47;8.80;70.00
48589;DHT22;34369;51.174;6.738;2023-04-08T04:25:20;8.80;69.90
48589;DHT22;34369;51.174;6.738;2023-04-08T04:27:52;8.80;69.90
48589;DHT22;34369;51.174;6.738;2023-04-08T04:30:25;8.80;69.80
48589;DHT22;34369;51.174;6.738;2023-04-08T04:32:58;8.80;69.90
48589;DHT22;34369;51.174;6.738;2023-04-08T04:35:30;8.80;69.80
48589;DHT22;34369;51.174;6.738;2023-04-08T04:38:02;8.80;69.70
48589;DHT22;34369;51.174;6.738;2023-04-08T04:40:37;8.70;69.70
48589;DHT22;34369;51.174;6.738;2023-04-08T04:43:10;8.70;69.70
48589;DHT22;34369;51.174;6.738;2023-04-08T04:45:45;8.60;69.70
48589;DHT22;34369;51.174;6.738;2023-04-08T04:48:17;8.70;69.70
48589;DHT22;34369;51.174;6.738;2023-04-08T04:50:54;8.60;69.70
48589;DHT22;34369;51.174;6.738;2023-04-08T04:53:27;8.60;69.80
48589;DHT22;34369;51.174;6.738;2023-04-08T04:55:59;8.60;69.80
48589;DHT22;34369;51.174;6.738;2023-04-08T04:58:31;8.60;69.70
48589;DHT22;34369;51.174;6.738;2023-04-08T05:01:07;8.60;69.80
48589;DHT22;34369;51.174;6.738;2023-04-08T05:03:39;8.60;69.90
48589;DHT22;34369;51.174;6.738;2023-04-08T05:06:11;8.60;69.90
48589;DHT22;34369;51.174;6.738;2023-04-08T05:08:44;8.50;70.00
48589;DHT22;34369;51.174;6.738;2023-04-08T05:11:17;8.50;70.10
48589;DHT22;34369;51.174;6.738;2023-04-08T05:13:51;8.50;70.00
48589;DHT22;34369;51.174;6.738;2023-04-08T05:16:24;8.50;70.00
48589;DHT22;34369;51.174;6.738;2023-04-08T05:18:56;8.50;70.10
48589;DHT22;34369;51.174;6.738;2023-04-08T05:21:29;8.50;70.20
48589;DHT22;34369;51.174;6.738;2023-04-08T05:24:03;8.50;70.20
48589;DHT22;34369;51.174;6.738;2023-04-08T05:26:36;8.50;70.10
48589;DHT22;34369;51.174;6.738;2023-04-08T05:29:08;8.50;70.10
48589;DHT22;34369;51.174;6.738;2023-04-08T05:31:42;8.40;70.00
48589;DHT22;34369;51.174;6.738;2023-04-08T05:34:15;8.40;70.00
48589;DHT22;34369;51.174;6.738;2023-04-08T05:36:52;8.40;69.90
48589;DHT22;34369;51.174;6.738;2023-04-08T05:39:24;8.40;69.90
48589;DHT22;34369;51.174;6.738;2023-04-08T05:41:56;8.40;69.80
48589;DHT22;34369;51.174;6.738;2023-04-08T05:44:29;8.30;69.70
48589;DHT22;34369;51.174;6.738;2023-04-08T05:47:02;8.30;69.70
48589;DHT22;34369;51.174;6.738;2023-04-08T05:49:35;8.30;69.70
48589;DHT22;34369;51.174;6.738;2023-04-08T05:52:07;8.30;69.80
48589;DHT22;34369;51.174;6.738;2023-04-08T05:54:41;8.20;69.80
48589;DHT22;34369;51.174;6.738;2023-04-08T05:57:14;8.20;70.10
48589;DHT22;34369;51.174;6.738;2023-04-08T05:59:48;8.20;70.20
48589;DHT22;34369;51.174;6.738;2023-04-08T06:02:22;8.20;70.50
48589;DHT22;34369;51.174;6.738;2023-04-08T06:04:54;8.20;70.70
48589;DHT22;34369;51.174;6.738;2023-04-08T06:07:26;8.20;70.80
48589;DHT22;34369;51.174;6.738;2023-04-08T06:09:58;8.20;71.00
48589;DHT22;34369;51.174;6.738;2023-04-08T06:12:30;8.20;71.00
48589;DHT22;34369;51.174;6.738;2023-04-08T06:15:03;8.20;71.10
48589;DHT22;34369;51.174;6.738;2023-04-08T06:17:37;8.30;71.20
48589;DHT22;34369;51.174;6.738;2023-04-08T06:20:10;8.30;71.30
48589;DHT22;34369;51.174;6.738;2023-04-08T06:22:42;8.30;71.40
48589;DHT22;34369;51.174;6.738;2023-04-08T06:25:14;8.40;71.50
48589;DHT22;34369;51.174;6.738;2023-04-08T06:27:47;8.40;71.50
48589;DHT22;34369;51.174;6.738;2023-04-08T06:30:19;8.40;71.60
48589;DHT22;34369;51.174;6.738;2023-04-08T06:32:52;8.50;71.60
48589;DHT22;34369;51.174;6.738;2023-04-08T06:35:24;8.50;71.70
48589;DHT22;34369;51.174;6.738;2023-04-08T06:37:57;8.50;71.70
48589;DHT22;34369;51.174;6.738;2023-04-08T06:40:29;8.60;71.80
48589;DHT22;34369;51.174;6.738;2023-04-08T06:43:01;8.60;71.70
48589;DHT22;34369;51.174;6.738;2023-04-08T06:45:33;8.60;71.70
48589;DHT22;34369;51.174;6.738;2023-04-08T06:48:07;8.70;71.70
48589;DHT22;34369;51.174;6.738;2023-04-08T06:50:40;8.80;71.70
48589;DHT22;34369;51.174;6.738;2023-04-08T06:53:13;8.80;71.50
48589;DHT22;34369;51.174;6.738;2023-04-08T06:55:46;8.90;71.40
48589;DHT22;34369;51.174;6.738;2023-04-08T06:58:18;8.90;71.20
48589;DHT22;34369;51.174;6.738;2023-04-08T07:00:50;9.00;70.80
48589;DHT22;34369;51.174;6.738;2023-04-08T07:03:26;9.00;70.70
48589;DHT22;34369;51.174;6.738;2023-04-08T07:05:58;9.00;70.80
48589;DHT22;34369;51.174;6.738;2023-04-08T07:08:30;9.10;70.80
48589;DHT22;34369;51.174;6.738;2023-04-08T07:11:02;9.20;70.50
48589;DHT22;34369;51.174;6.738;2023-04-08T07:13:35;9.20;70.30
48589;DHT22;34369;51.174;6.738;2023-04-08T07:16:07;9.20;70.10
48589;DHT22;34369;51.174;6.738;2023-04-08T07:18:41;9.20;69.90
48589;DHT22;34369;51.174;6.738;2023-04-08T07:21:13;9.20;69.70
48589;DHT22;34369;51.174;6.738;2023-04-08T07:23:46;9.20;69.60
48589;DHT22;34369;51.174;6.738;2023-04-08T07:26:20;9.20;69.60
48589;DHT22;34369;51.174;6.738;2023-04-08T07:28:53;9.30;69.80
48589;DHT22;34369;51.174;6.738;2023-04-08T07:31:25;9.30;69.90
48589;DHT22;34369;51.174;6.738;2023-04-08T07:33:59;9.30;69.90
48589;DHT22;34369;51.174;6.738;2023-04-08T07:36:31;9.30;70.00
48589;DHT22;34369;51.174;6.738;2023-04-08T07:39:04;9.40;70.10
48589;DHT22;34369;51.174;6.738;2023-04-08T07:41:36;9.40;70.20
48589;DHT22;34369;51.174;6.738;2023-04-08T07:44:09;9.50;70.50
48589;DHT22;34369;51.174;6.738;2023-04-08T07:46:41;9.60;70.30
48589;DHT22;34369;51.174;6.738;2023-04-08T07:49:16;9.70;69.90
48589;DHT22;34369;51.174;6.738;2023-04-08T07:51:50;9.80;69.40
48589;DHT22;34369;51.174;6.738;2023-04-08T07:54:22;9.80;69.20
48589;DHT22;34369;51.174;6.738;2023-04-08T07:56:56;9.90;68.60
48589;DHT22;34369;51.174;6.738;2023-04-08T07:59:31;10.00;68.20
48589;DHT22;34369;51.174;6.738;2023-04-08T08:02:04;10.00;67.90
48589;DHT22;34369;51.174;6.738;2023-04-08T08:04:37;10.00;67.70
48589;DHT22;34369;51.174;6.738;2023-04-08T08:07:10;10.00;67.80
48589;DHT22;34369;51.174;6.738;2023-04-08T08:09:42;9.90;67.80
48589;DHT22;34369;51.174;6.738;2023-04-08T08:12:16;9.90;67.60
48589;DHT22;34369;51.174;6.738;2023-04-08T08:14:48;9.90;67.20
48589;DHT22;34369;51.174;6.738;2023-04-08T08:17:24;9.90;67.10
48589;DHT22;34369;51.174;6.738;2023-04-08T08:20:01;9.90;67.10
48589;DHT22;34369;51.174;6.738;2023-04-08T08:22:34;9.90;67.10
48589;DHT22;34369;51.174;6.738;2023-04-08T08:25:09;9.80;67.10
48589;DHT22;34369;51.174;6.738;2023-04-08T08:27:41;9.80;67.10
48589;DHT22;34369;51.174;6.738;2023-04-08T08:30:13;9.80;67.20
48589;DHT22;34369;51.174;6.738;2023-04-08T08:32:45;9.80;67.30
48589;DHT22;34369;51.174;6.738;2023-04-08T08:35:20;9.80;67.50
48589;DHT22;34369;51.174;6.738;2023-04-08T08:37:53;9.80;67.40
48589;DHT22;34369;51.174;6.738;2023-04-08T08:40:27;9.70;67.50
48589;DHT22;34369;51.174;6.738;2023-04-08T08:42:59;9.70;67.60
48589;DHT22;34369;51.174;6.738;2023-04-08T08:45:33;9.70;67.70
48589;DHT22;34369;51.174;6.738;2023-04-08T08:48:09;9.70;67.70
48589;DHT22;34369;51.174;6.738;2023-04-08T08:50:43;9.70;68.00
48589;DHT22;34369;51.174;6.738;2023-04-08T08:53:15;9.70;68.20
48589;DHT22;34369;51.174;6.738;2023-04-08T08:55:49;9.70;68.20
48589;DHT22;34369;51.174;6.738;2023-04-08T08:58:25;9.70;68.10
48589;DHT22;34369;51.174;6.738;2023-04-08T09:00:57;9.70;68.10
48589;DHT22;34369;51.174;6.738;2023-04-08T09:03:29;9.80;67.90
48589;DHT22;34369;51.174;6.738;2023-04-08T09:06:03;9.80;67.70
48589;DHT22;34369;51.174;6.738;2023-04-08T09:08:36;9.80;67.70
48589;DHT22;34369;51.174;6.738;2023-04-08T09:11:13;9.80;67.70
48589;DHT22;34369;51.174;6.738;2023-04-08T09:13:46;9.80;67.60
48589;DHT22;34369;51.174;6.738;2023-04-08T09:16:19;9.80;67.60
48589;DHT22;34369;51.174;6.738;2023-04-08T09:18:52;9.80;67.50
48589;DHT22;34369;51.174;6.738;2023-04-08T09:21:28;9.80;67.50
48589;DHT22;34369;51.174;6.738;2023-04-08T09:24:01;9.80;67.60
48589;DHT22;34369;51.174;6.738;2023-04-08T09:26:35;9.80;67.60
48589;DHT22;34369;51.174;6.738;2023-04-08T09:29:08;9.90;67.40
48589;DHT22;34369;51.174;6.738;2023-04-08T09:31:41;10.00;67.50
48589;DHT22;34369;51.174;6.738;2023-04-08T09:34:14;10.00;67.20
48589;DHT22;34369;51.174;6.738;2023-04-08T09:36:49;10.00;67.10
48589;DHT22;34369;51.174;6.738;2023-04-08T09:39:22;10.00;66.90
48589;DHT22;34369;51.174;6.738;2023-04-08T09:41:57;10.00;66.80
48589;DHT22;34369;51.174;6.738;2023-04-08T09:44:32;10.00;66.70
48589;DHT22;34369;51.174;6.738;2023-04-08T09:47:17;10.00;66.80
48589;DHT22;34369;51.174;6.738;2023-04-08T09:49:54;10.00;66.90
48589;DHT22;34369;51.174;6.738;2023-04-08T09:52:38;10.00;66.90
48589;DHT22;34369;51.174;6.738;2023-04-08T09:55:16;10.00;67.00
48589;DHT22;34369;51.174;6.738;2023-04-08T09:57:58;10.00;67.10
48589;DHT22;34369;51.174;6.738;2023-04-08T10:00:37;10.00;67.00
48589;DHT22;34369;51.174;6.738;2023-04-08T10:03:20;10.00;67.00
48589;DHT22;34369;51.174;6.738;2023-04-08T10:06:00;10.10;67.20
48589;DHT22;34369;51.174;6.738;2023-04-08T10:08:35;10.20;67.20
48589;DHT22;34369;51.174;6.738;2023-04-08T10:11:08;10.30;67.10
48589;DHT22;34369;51.174;6.738;2023-04-08T10:13:41;10.30;66.80
48589;DHT22;34369;51.174;6.738;2023-04-08T10:16:20;10.40;66.90
48589;DHT22;34369;51.174;6.738;2023-04-08T10:18:56;10.50;66.30
48589;DHT22;34369;51.174;6.738;2023-04-08T10:21:38;10.50;66.20
48589;DHT22;34369;51.174;6.738;2023-04-08T10:31:48;10.60;65.20
48589;DHT22;34369;51.174;6.738;2023-04-08T10:34:22;10.60;65.20
48589;DHT22;34369;51.174;6.738;2023-04-08T10:36:56;10.60;64.80
48589;DHT22;34369;51.174;6.738;2023-04-08T10:39:31;10.60;64.70
48589;DHT22;34369;51.174;6.738;2023-04-08T10:42:07;10.60;64.70
48589;DHT22;34369;51.174;6.738;2023-04-08T10:44:43;10.60;64.10
48589;DHT22;34369;51.174;6.738;2023-04-08T10:47:27;10.60;63.90
48589;DHT22;34369;51.174;6.738;2023-04-08T10:49:59;10.60;63.60
48589;DHT22;34369;51.174;6.738;2023-04-08T10:52:31;10.60;64.00
48589;DHT22;34369;51.174;6.738;2023-04-08T10:55:04;10.60;63.90
48589;DHT22;34369;51.174;6.738;2023-04-08T10:57:37;10.60;63.80
48589;DHT22;34369;51.174;6.738;2023-04-08T11:00:11;10.60;63.70
48589;DHT22;34369;51.174;6.738;2023-04-08T11:02:50;10.60;63.70
48589;DHT22;34369;51.174;6.738;2023-04-08T11:05:23;10.60;63.70
48589;DHT22;34369;51.174;6.738;2023-04-08T11:07:57;10.60;63.50
48589;DHT22;34369;51.174;6.738;2023-04-08T11:10:29;10.60;63.50
48589;DHT22;34369;51.174;6.738;2023-04-08T11:13:02;10.70;63.20
48589;DHT22;34369;51.174;6.738;2023-04-08T11:15:35;10.80;63.20
48589;DHT22;34369;51.174;6.738;2023-04-08T11:18:10;10.80;62.90
48589;DHT22;34369;51.174;6.738;2023-04-08T11:20:43;10.90;62.70
48589;DHT22;34369;51.174;6.738;2023-04-08T11:23:15;11.00;62.20
48589;DHT22;34369;51.174;6.738;2023-04-08T11:25:48;11.00;61.90
48589;DHT22;34369;51.174;6.738;2023-04-08T11:28:21;11.10;62.00
48589;DHT22;34369;51.174;6.738;2023-04-08T11:30:56;11.20;62.50
48589;DHT22;34369;51.174;6.738;2023-04-08T11:33:31;11.40;62.60
48589;DHT22;34369;51.174;6.738;2023-04-08T11:36:04;11.60;62.30
48589;DHT22;34369;51.174;6.738;2023-04-08T11:38:38;11.80;61.70
48589;DHT22;34369;51.174;6.738;2023-04-08T11:41:11;11.90;61.10
48589;DHT22;34369;51.174;6.738;2023-04-08T11:43:56;12.00;60.50
48589;DHT22;34369;51.174;6.738;2023-04-08T11:46:28;12.10;59.20
48589;DHT22;34369;51.174;6.738;2023-04-08T11:49:04;12.20;59.60
48589;DHT22;34369;51.174;6.738;2023-04-08T11:51:54;12.20;58.80
48589;DHT22;34369;51.174;6.738;2023-04-08T11:54:27;12.20;58.30
48589;DHT22;34369;51.174;6.738;2023-04-08T11:57:01;12.20;59.00
48589;DHT22;34369;51.174;6.738;2023-04-08T11:59:34;12.20;59.10
48589;DHT22;34369;51.174;6.738;2023-04-08T12:02:06;12.10;58.90
48589;DHT22;34369;51.174;6.738;2023-04-08T12:04:40;12.10;58.80
48589;DHT22;34369;51.174;6.738;2023-04-08T12:07:12;12.10;59.00
48589;DHT22;34369;51.174;6.738;2023-04-08T12:09:44;12.20;58.90
48589;DHT22;34369;51.174;6.738;2023-04-08T12:12:17;12.20;58.60
48589;DHT22;34369;51.174;6.738;2023-04-08T12:14:49;12.20;58.90
48589;DHT22;34369;51.174;6.738;2023-04-08T12:17:23;12.20;58.30
48589;DHT22;34369;51.174;6.738;2023-04-08T12:19:56;12.20;58.00
48589;DHT22;34369;51.174;6.738;2023-04-08T12:22:28;12.20;58.30
48589;DHT22;34369;51.174;6.738;2023-04-08T12:25:01;12.20;58.10
48589;DHT22;34369;51.174;6.738;2023-04-08T12:27:34;12.20;57.70
48589;DHT22;34369;51.174;6.738;2023-04-08T12:30:08;12.20;57.30
48589;DHT22;34369;51.174;6.738;2023-04-08T12:32:41;12.20;57.50
48589;DHT22;34369;51.174;6.738;2023-04-08T12:35:18;12.20;57.20
48589;DHT22;34369;51.174;6.738;2023-04-08T12:37:50;12.10;56.30
48589;DHT22;34369;51.174;6.738;2023-04-08T12:40:22;12.20;56.00
48589;DHT22;34369;51.174;6.738;2023-04-08T12:42:55;12.10;55.30
48589;DHT22;34369;51.174;6.738;2023-04-08T12:45:27;12.10;54.20
48589;DHT22;34369;51.174;6.738;2023-04-08T12:48:00;12.10;53.90
48589;DHT22;34369;51.174;6.738;2023-04-08T12:50:33;12.00;53.70
48589;DHT22;34369;51.174;6.738;2023-04-08T12:53:06;12.00;52.80
48589;DHT22;34369;51.174;6.738;2023-04-08T12:55:38;11.90;52.40
48589;DHT22;34369;51.174;6.738;2023-04-08T12:58:11;11.90;52.50
48589;DHT22;34369;51.174;6.738;2023-04-08T13:00:43;11.90;52.60
48589;DHT22;34369;51.174;6.738;2023-04-08T13:03:16;11.80;52.70
48589;DHT22;34369;51.174;6.738;2023-04-08T13:05:50;11.80;52.70
48589;DHT22;34369;51.174;6.738;2023-04-08T13:08:22;11.70;52.50
48589;DHT22;34369;51.174;6.738;2023-04-08T13:10:55;11.70;52.50
48589;DHT22;34369;51.174;6.738;2023-04-08T13:13:27;11.70;52.80
48589;DHT22;34369;51.174;6.738;2023-04-08T13:15:59;11.70;52.80
48589;DHT22;34369;51.174;6.738;2023-04-08T13:18:32;11.70;52.60
48589;DHT22;34369;51.174;6.738;2023-04-08T13:21:05;11.80;52.80
48589;DHT22;34369;51.174;6.738;2023-04-08T13:23:38;11.80;52.70
48589;DHT22;34369;51.174;6.738;2023-04-08T13:26:11;11.90;52.80
48589;DHT22;34369;51.174;6.738;2023-04-08T13:28:44;11.90;53.00
48589;DHT22;34369;51.174;6.738;2023-04-08T13:31:16;12.00;53.10
48589;DHT22;34369;51.174;6.738;2023-04-08T13:33:48;12.00;53.40
48589;DHT22;34369;51.174;6.738;2023-04-08T13:36:22;12.10;53.00
48589;DHT22;34369;51.174;6.738;2023-04-08T13:38:55;12.20;53.00
48589;DHT22;34369;51.174;6.738;2023-04-08T13:41:28;12.20;53.00
48589;DHT22;34369;51.174;6.738;2023-04-08T13:44:00;12.30;52.90
48589;DHT22;34369;51.174;6.738;2023-04-08T13:46:33;12.30;53.00
48589;DHT22;34369;51.174;6.738;2023-04-08T13:49:05;12.30;53.00
48589;DHT22;34369;51.174;6.738;2023-04-08T13:51:40;12.30;53.00
48589;DHT22;34369;51.174;6.738;2023-04-08T13:54:12;12.30;53.00
48589;DHT22;34369;51.174;6.738;2023-04-08T13:56:44;12.30;53.10
48589;DHT22;34369;51.174;6.738;2023-04-08T13:59:16;12.30;53.30
48589;DHT22;34369;51.174;6.738;2023-04-08T14:01:48;12.30;53.30
48589;DHT22;34369;51.174;6.738;2023-04-08T14:04:23;12.30;53.50
48589;DHT22;34369;51.174;6.738;2023-04-08T14:06:56;12.30;53.60
48589;DHT22;34369;51.174;6.738;2023-04-08T14:09:28;12.30;53.50
48589;DHT22;34369;51.174;6.738;2023-04-08T14:12:00;12.40;53.60
48589;DHT22;34369;51.174;6.738;2023-04-08T14:14:32;12.40;53.60
48589;DHT22;34369;51.174;6.738;2023-04-08T14:17:04;12.40;53.70
48589;DHT22;34369;51.174;6.738;2023-04-08T14:19:36;12.40;53.90
48589;DHT22;34369;51.174;6.738;2023-04-08T14:22:10;12.40;54.10
48589;DHT22;34369;51.174;6.738;2023-04-08T14:24:42;12.50;54.30
48589;DHT22;34369;51.174;6.738;2023-04-08T14:27:14;12.50;54.20
48589;DHT22;34369;51.174;6.738;2023-04-08T14:29:46;12.50;54.40
48589;DHT22;34369;51.174;6.738;2023-04-08T14:32:18;12.60;54.30
48589;DHT22;34369;51.174;6.738;2023-04-08T14:34:50;12.70;54.40
48589;DHT22;34369;51.174;6.738;2023-04-08T14:37:23;12.70;54.40
48589;DHT22;34369;51.174;6.738;2023-04-08T14:39:55;12.80;54.40
48589;DHT22;34369;51.174;6.738;2023-04-08T14:42:27;12.80;54.70
48589;DHT22;34369;51.174;6.738;2023-04-08T14:44:59;12.90;54.60
48589;DHT22;34369;51.174;6.738;2023-04-08T14:47:31;13.00;54.50
48589;DHT22;34369;51.174;6.738;2023-04-08T14:50:04;13.10;54.50
48589;DHT22;34369;51.174;6.738;2023-04-08T14:52:37;13.10;54.20
48589;DHT22;34369;51.174;6.738;2023-04-08T14:55:10;13.20;54.20
48589;DHT22;34369;51.174;6.738;2023-04-08T14:57:42;13.30;54.10
48589;DHT22;34369;51.174;6.738;2023-04-08T15:00:14;13.30;53.80
48589;DHT22;34369;51.174;6.738;2023-04-08T15:02:46;13.30;53.80
48589;DHT22;34369;51.174;6.738;2023-04-08T15:05:18;13.30;53.60
48589;DHT22;34369;51.174;6.738;2023-04-08T15:07:52;13.30;53.90
48589;DHT22;34369;51.174;6.738;2023-04-08T15:10:25;13.40;53.60
48589;DHT22;34369;51.174;6.738;2023-04-08T15:12:57;13.40;53.50
48589;DHT22;34369;51.174;6.738;2023-04-08T15:15:29;13.30;53.40
48589;DHT22;34369;51.174;6.738;2023-04-08T15:18:01;13.30;53.70
48589;DHT22;34369;51.174;6.738;2023-04-08T15:20:33;13.30;53.70
48589;DHT22;34369;51.174;6.738;2023-04-08T15:23:06;13.30;53.70
48589;DHT22;34369;51.174;6.738;2023-04-08T15:25:38;13.20;53.70
48589;DHT22;34369;51.174;6.738;2023-04-08T15:28:11;13.20;53.70
48589;DHT22;34369;51.174;6.738;2023-04-08T15:30:43;13.10;53.80
48589;DHT22;34369;51.174;6.738;2023-04-08T15:33:15;13.10;53.70
48589;DHT22;34369;51.174;6.738;2023-04-08T15:35:47;13.10;53.90
48589;DHT22;34369;51.174;6.738;2023-04-08T15:38:20;13.00;54.10
48589;DHT22;34369;51.174;6.738;2023-04-08T15:40:52;13.00;54.00
48589;DHT22;34369;51.174;6.738;2023-04-08T15:43:24;12.90;54.30
48589;DHT22;34369;51.174;6.738;2023-04-08T15:45:56;12.90;54.40
48589;DHT22;34369;51.174;6.738;2023-04-08T15:48:28;12.80;54.40
48589;DHT22;34369;51.174;6.738;2023-04-08T15:51:08;12.80;54.50
48589;DHT22;34369;51.174;6.738;2023-04-08T15:53:43;12.80;54.60
48589;DHT22;34369;51.174;6.738;2023-04-08T15:56:15;12.70;54.70
48589;DHT22;34369;51.174;6.738;2023-04-08T15:58:47;12.70;54.70
48589;DHT22;34369;51.174;6.738;2023-04-08T16:01:19;12.70;54.90
48589;DHT22;34369;51.174;6.738;2023-04-08T16:03:51;12.70;54.90
48589;DHT22;34369;51.174;6.738;2023-04-08T16:06:23;12.60;54.90
48589;DHT22;34369;51.174;6.738;2023-04-08T16:08:57;12.60;55.00
48589;DHT22;34369;51.174;6.738;2023-04-08T16:11:29;12.50;54.80
48589;DHT22;34369;51.174;6.738;2023-04-08T16:14:01;12.50;54.80
48589;DHT22;34369;51.174;6.738;2023-04-08T16:16:34;12.50;54.80
48589;DHT22;34369;51.174;6.738;2023-04-08T16:19:07;12.40;55.00
48589;DHT22;34369;51.174;6.738;2023-04-08T16:21:40;12.40;55.30
48589;DHT22;34369;51.174;6.738;2023-04-08T16:24:13;12.30;55.30
48589;DHT22;34369;51.174;6.738;2023-04-08T16:26:45;12.30;55.50